createdAt,value
2022-11-18T00:01:18.607Z,78.14252908297055
2022-11-18T00:04:17.352Z,78.00218110013273
2022-11-18T00:07:17.328Z,77.75100564500586
2022-11-18T00:14:22.969Z,77.72035084064147
2022-11-18T00:17:17.229Z,79.36666769661716
2022-11-18T00:21:16.109Z,79.58537999882057
2022-11-18T00:24:17.117Z,79.5456351113176
2022-11-18T00:27:16.763Z,79.1442257039852
2022-11-18T00:31:15.747Z,79.97615076635067
2022-11-18T00:34:17.599Z,79.89677229462811
2022-11-18T00:37:16.386Z,79.66434394095423
2022-11-18T00:41:16.334Z,80.17933589178512
2022-11-18T00:44:16.610Z,82.22611593483686
2022-11-18T00:47:17.309Z,84.81204950037277
2022-11-18T00:51:18.040Z,87.11691459554498
2022-11-18T00:54:17.876Z,87.11335504042712
2022-11-18T00:57:16.737Z,88.4397781364884
2022-11-18T01:01:16.163Z,87.24668850466146
2022-11-18T01:04:16.836Z,87.70805224679903
2022-11-18T01:07:16.434Z,88.62280885631259
2022-11-18T01:21:16.462Z,88.67231422222376
2022-11-18T01:24:16.907Z,88.0889844251351
2022-11-18T01:27:16.589Z,88.25167833391299
2022-11-18T01:31:18.420Z,87.68845727375329
2022-11-18T01:34:16.709Z,88.00526361108298
2022-11-18T01:37:16.821Z,88.34635659502737
2022-11-18T01:41:17.714Z,88.40839731453087
2022-11-18T01:44:58.059Z,89.12036445566261
2022-11-18T01:47:16.622Z,88.93330619271406
2022-11-18T01:51:21.692Z,89.42006596594062
2022-11-18T01:54:21.109Z,89.95891111447038
2022-11-18T01:57:20.427Z,90.58847919228077
2022-11-18T02:01:17.838Z,90.76048915222938
2022-11-18T02:04:17.174Z,90.81090421954987
2022-11-18T02:07:23.944Z,90.93241905395408
2022-11-18T02:11:51.573Z,91.5065125060735
2022-11-18T02:14:21.259Z,94.07563040656478
2022-11-18T02:17:27.328Z,94.00983626615592
2022-11-18T02:21:27.440Z,92.71966843918497
2022-11-18T02:24:28.153Z,93.10679642481715
2022-11-18T02:27:46.821Z,91.69677482391998
2022-11-18T02:31:23.738Z,92.28494000604523
2022-11-18T02:34:30.482Z,92.1534855219455
2022-11-18T02:37:22.958Z,94.58463803493841
2022-11-18T02:41:21.035Z,95.52829092251307
2022-11-18T02:44:21.179Z,97.11982644162761
2022-11-18T02:47:20.228Z,98.07531211932313
2022-11-18T02:51:21.084Z,99.60286715678585
2022-11-18T02:54:20.242Z,99.98516234951904
2022-11-18T02:57:20.220Z,100
2022-11-18T03:01:23.375Z,99.79895881819206
2022-11-18T03:04:20.665Z,99.82691093026759
2022-11-18T03:07:23.002Z,100
2022-11-18T03:11:20.927Z,100
2022-11-18T03:14:24.286Z,100
2022-11-18T03:17:23.545Z,100
2022-11-18T03:21:23.148Z,100
2022-11-18T03:24:21.606Z,100
2022-11-18T03:27:23.080Z,100
2022-11-18T03:31:22.357Z,100
2022-11-18T03:34:22.096Z,100
2022-11-18T03:37:19.264Z,100
2022-11-18T03:41:18.291Z,100
2022-11-18T03:44:20.959Z,100
2022-11-18T03:47:21.887Z,100
2022-11-18T03:51:21.400Z,100
2022-11-18T03:54:22.722Z,100
2022-11-18T03:57:21.364Z,100
2022-11-18T04:01:20.717Z,100
2022-11-18T04:04:17.239Z,100
2022-11-18T04:07:23.968Z,100
2022-11-18T04:12:09.751Z,100
2022-11-18T04:14:18.173Z,100
2022-11-18T04:17:20.873Z,100
2022-11-18T04:21:15.818Z,100
2022-11-18T04:24:16.101Z,100
2022-11-18T04:27:16.249Z,100
2022-11-18T04:31:16.585Z,100
2022-11-18T04:34:16.658Z,100
2022-11-18T04:37:16.715Z,100
2022-11-18T04:41:17.317Z,100
2022-11-18T04:44:16.697Z,100
2022-11-18T04:47:17.581Z,100
2022-11-18T04:51:16.226Z,100
2022-11-18T04:54:17.355Z,100
2022-11-18T04:57:16.387Z,100
2022-11-18T05:01:16.392Z,100
2022-11-18T05:04:19.434Z,100
2022-11-18T05:07:17.024Z,100
2022-11-18T05:21:15.923Z,100
2022-11-18T05:24:16.880Z,100
2022-11-18T05:27:16.565Z,100
2022-11-18T05:31:17.428Z,100
2022-11-18T05:34:17.850Z,100
2022-11-18T05:37:16.968Z,100
2022-11-18T05:43:11.442Z,100
2022-11-18T05:44:16.990Z,100
2022-11-18T05:47:17.172Z,100
2022-11-18T05:51:17.427Z,100
2022-11-18T05:54:19.567Z,100
2022-11-18T05:57:16.851Z,100
2022-11-18T06:01:26.712Z,100
2022-11-18T06:04:22.089Z,100
2022-11-18T06:07:19.725Z,100
2022-11-18T06:11:18.850Z,100
2022-11-18T06:14:21.974Z,100
2022-11-18T06:17:21.862Z,100
2022-11-18T06:21:16.119Z,100
2022-11-18T06:24:17.815Z,100
2022-11-18T06:27:16.790Z,100
2022-11-18T06:31:17.404Z,100
2022-11-18T06:34:17.051Z,100
2022-11-18T06:37:20.528Z,100
2022-11-18T06:41:16.487Z,100
2022-11-18T06:44:16.935Z,100
2022-11-18T06:47:17.410Z,100
2022-11-18T06:51:19.472Z,100
2022-11-18T06:54:20.125Z,100
2022-11-18T06:57:19.516Z,100
2022-11-18T07:01:18.319Z,100
2022-11-18T07:04:16.681Z,100
2022-11-18T07:07:16.995Z,100
2022-11-18T07:11:19.081Z,100
2022-11-18T07:14:16.732Z,100
2022-11-18T07:17:17.103Z,100
2022-11-18T07:21:18.382Z,100
2022-11-18T07:24:16.928Z,100
2022-11-18T07:27:16.353Z,100
2022-11-18T07:31:21.322Z,100
2022-11-18T07:34:17.142Z,100
2022-11-18T07:37:16.720Z,100
2022-11-18T07:41:18.106Z,100
2022-11-18T07:44:17.398Z,100
2022-11-18T07:47:16.456Z,100
2022-11-18T07:51:18.021Z,100
2022-11-18T07:54:17.250Z,100
2022-11-18T07:57:16.468Z,100
2022-11-18T08:01:18.748Z,100
2022-11-18T08:04:18.446Z,100
2022-11-18T08:07:17.219Z,100
2022-11-18T08:11:22.216Z,100
2022-11-18T08:14:16.305Z,100
2022-11-18T08:17:16.308Z,100
2022-11-18T08:21:18.322Z,100
2022-11-18T08:24:17.221Z,100
2022-11-18T08:27:17.658Z,100
2022-11-18T08:31:18.330Z,100
2022-11-18T08:34:17.560Z,100
2022-11-18T08:37:17.800Z,100
2022-11-18T08:41:18.996Z,100
2022-11-18T08:44:16.631Z,100
2022-11-18T08:47:16.455Z,100
2022-11-18T08:51:16.312Z,100
2022-11-18T08:54:16.403Z,100
2022-11-18T08:57:16.266Z,100
2022-11-18T09:01:16.737Z,100
2022-11-18T09:04:16.601Z,100
2022-11-18T09:07:17.136Z,100
2022-11-18T09:11:18.083Z,100
2022-11-18T09:17:16.754Z,100
2022-11-18T09:21:16.658Z,100
2022-11-18T09:24:17.198Z,100
2022-11-18T09:27:17.511Z,100
2022-11-18T09:31:18.011Z,100
2022-11-18T09:34:16.603Z,100
2022-11-18T09:37:44.355Z,100
2022-11-18T09:41:31.023Z,100
2022-11-18T09:44:30.325Z,100
2022-11-18T09:47:26.396Z,100
2022-11-18T09:51:16.448Z,100
2022-11-18T09:54:20.853Z,100
2022-11-18T09:57:19.376Z,100
2022-11-18T10:01:20.009Z,100
2022-11-18T10:04:19.099Z,100
2022-11-18T10:07:21.559Z,100
2022-11-18T10:11:19.319Z,100
2022-11-18T10:15:02.211Z,100
2022-11-18T10:17:31.836Z,100
2022-11-18T10:21:27.843Z,100
2022-11-18T10:24:23.841Z,100
2022-11-18T10:27:37.380Z,100
2022-11-18T10:31:21.583Z,100
2022-11-18T10:41:21.091Z,100
2022-11-18T10:44:35.931Z,100
2022-11-18T10:47:23.654Z,100
2022-11-18T10:51:24.368Z,100
2022-11-18T10:54:20.606Z,100
2022-11-18T10:57:20.248Z,100
2022-11-18T11:01:21.203Z,99.10153923336242
2022-11-18T11:04:22.217Z,94.8643382479466
2022-11-18T11:07:25.634Z,94.7843857648893
2022-11-18T11:11:23.596Z,97.48146836317069
2022-11-18T11:14:22.559Z,99.64171314537624
2022-11-18T11:17:26.588Z,100
2022-11-18T11:21:18.435Z,96.44989030734178
2022-11-18T11:24:16.697Z,94.8151781417795
2022-11-18T11:31:21.352Z,95.53917244560775
2022-11-18T11:34:25.150Z,93.87125782886022
2022-11-18T11:41:22.667Z,94.78008699097575
2022-11-18T11:44:30.701Z,92.1974635325918
2022-11-18T11:48:22.121Z,91.79936557420001
2022-11-18T11:51:25.083Z,90.69011532140435
2022-11-18T11:54:26.509Z,90.43739729567683
2022-11-18T11:57:52.642Z,89.44035813404821
2022-11-18T12:01:22.512Z,87.30358514222354
2022-11-18T12:04:29.293Z,87.8087337219714
2022-11-18T12:07:20.397Z,86.91209083711634
2022-11-18T12:11:26.393Z,86.4472344301487
2022-11-18T12:14:28.524Z,87.76058174131185
2022-11-18T12:17:24.141Z,86.0974354603744
2022-11-18T12:22:20.730Z,87.08823956838903
2022-11-18T12:24:48.548Z,86.12990621620695
2022-11-18T12:27:58.947Z,87.01628054617478
2022-11-18T12:31:34.973Z,85.88487471645391
2022-11-18T12:34:30.547Z,86.9154194314945
2022-11-18T13:01:30.001Z,88.23708464887817
2022-11-18T13:04:18.503Z,87.70554181063467
2022-11-18T13:08:17.235Z,84.80463924896476
2022-11-18T13:12:25.452Z,84.73344188197639
2022-11-18T13:31:22.221Z,84.80769310972006
2022-11-18T13:34:19.691Z,85.23062027860043
2022-11-18T13:37:19.612Z,84.73071740548637
2022-11-18T13:41:22.815Z,84.9916206524265
2022-11-18T13:44:18.864Z,86.09484431373531
2022-11-18T13:47:25.982Z,86.28576506615575
2022-11-18T13:51:17.412Z,87.1677853856787
2022-11-18T13:54:23.577Z,87.46864468368213
2022-11-18T13:57:21.866Z,88.0849672780773
2022-11-18T14:01:20.985Z,87.00887804447919
2022-11-18T14:04:20.362Z,86.4174696071752
2022-11-18T14:07:26.125Z,87.4965270404173
2022-11-18T14:11:34.531Z,87.34365201899786
2022-11-18T14:14:29.277Z,87.77081514645103
2022-11-18T14:17:20.262Z,88.34828620642912
2022-11-18T14:21:26.421Z,88.78925755450892
2022-11-18T14:24:16.511Z,88.54657238142383
2022-11-18T14:27:40.620Z,87.2692943654637
2022-11-18T14:31:24.081Z,88.07845130239774
2022-11-18T14:34:20.598Z,87.33306435122174
2022-11-18T14:37:17.546Z,87.22799744782773
2022-11-18T14:41:18.010Z,86.38339270785977
2022-11-18T14:44:18.729Z,85.18369579644705
2022-11-18T14:47:22.839Z,82.92922496994106
2022-11-18T14:51:16.514Z,81.24946702421389
2022-11-18T14:54:24.045Z,80.39150055148555
2022-11-18T14:57:17.300Z,81.05422635437189
2022-11-18T15:01:17.251Z,80.93719882171705
2022-11-18T15:04:17.999Z,80.21764802554004
2022-11-18T15:07:23.510Z,84.21740910802956
2022-11-18T15:11:18.113Z,74.3229881740288
2022-11-18T15:14:17.705Z,74.65589232598927
2022-11-18T15:17:20.161Z,73.18624750218375
2022-11-18T15:21:18.292Z,72.27429979464118
2022-11-18T15:24:17.252Z,69.64667641664803
2022-11-18T15:27:17.173Z,69.39566676433388
2022-11-18T15:31:17.884Z,70.46753376748616
2022-11-18T15:34:18.508Z,67.86326880776754
2022-11-18T15:37:17.030Z,67.01796506704541
2022-11-18T15:41:18.583Z,67.4053813394661
2022-11-18T15:44:16.828Z,69.92185535019911
2022-11-18T15:47:16.302Z,70.41164937751391
2022-11-18T15:51:17.044Z,69.54620963102191
2022-11-18T15:54:16.899Z,68.30461752599233
2022-11-18T15:57:16.953Z,70.72109276347237
2022-11-18T16:01:15.978Z,72.6694928518929
2022-11-18T16:04:18.376Z,73.915208785397
2022-11-18T16:07:16.850Z,74.30640762636969
2022-11-18T16:21:17.412Z,76.07490335052783
2022-11-18T16:24:19.817Z,77.16921436200795
2022-11-18T16:27:17.008Z,77.84973028846414
2022-11-18T16:31:51.602Z,78.43106767076765
2022-11-18T16:34:19.721Z,79.37259034865404
2022-11-18T16:37:16.777Z,80.4296080263271
2022-11-18T16:41:31.859Z,80.31547947142009
2022-11-18T16:44:17.210Z,80.85021388043907
2022-11-18T16:47:16.826Z,81.64026877186195
2022-11-18T16:51:19.874Z,82.70903853012972
2022-11-18T16:54:20.032Z,82.72514059597962
2022-11-18T16:57:16.777Z,84.13809911606442
2022-11-18T17:01:20.058Z,84.37532374948849
2022-11-18T17:04:17.090Z,84.31978894034377
2022-11-18T17:07:17.895Z,84.90398682271766
2022-11-18T17:11:16.919Z,85.53815083266564
2022-11-18T17:14:16.676Z,86.23396987022107
2022-11-18T17:17:16.357Z,85.93605081333754
2022-11-18T17:21:18.108Z,87.07535953692418
2022-11-18T17:24:19.520Z,87.34693388263345
2022-11-18T17:27:16.401Z,87.73264009129605
2022-11-18T17:31:17.295Z,88.27515670910505
2022-11-18T17:34:16.751Z,88.45119530907505
2022-11-18T17:37:16.636Z,88.2936149293675
2022-11-18T17:42:14.101Z,88.76387878965704
2022-11-18T17:44:17.892Z,89.65065572248892
2022-11-18T17:47:16.637Z,90.15035450870836
2022-11-18T17:51:16.249Z,90.75366329937668
2022-11-18T17:54:18.311Z,90.15115637279594
2022-11-18T17:57:16.959Z,89.698486110942
2022-11-18T18:01:18.156Z,90.32556534700566
2022-11-18T18:04:20.819Z,90.19330011440465
2022-11-18T18:07:16.926Z,90.17717415585697
2022-11-18T18:11:18.364Z,90.63088529966448
2022-11-18T18:14:17.498Z,90.34600410369607
2022-11-18T18:17:17.236Z,90.91129490786594
2022-11-18T18:21:17.074Z,90.71195546210798
2022-11-18T18:24:18.828Z,90.94151466137063
2022-11-18T18:27:16.912Z,91.27425214236429
2022-11-18T18:31:17.166Z,91.23853737627631
2022-11-18T18:34:17.684Z,92.01681349856027
2022-11-18T18:37:16.790Z,91.78056626275729
2022-11-18T18:41:41.135Z,90.87153539121452
2022-11-18T18:44:18.822Z,90.64512977265684
2022-11-18T18:47:16.189Z,91.6302825084657
2022-11-18T18:51:17.986Z,91.11704301278024
2022-11-18T18:54:18.531Z,90.56105500471874
2022-11-18T18:57:16.760Z,90.11334480186774
2022-11-18T19:01:17.922Z,89.56684332395591
2022-11-18T19:04:18.268Z,88.47925408294088
2022-11-18T19:07:17.893Z,88.66104894342077
2022-11-18T19:21:15.995Z,85.97125882288498
2022-11-18T19:24:42.403Z,86.44231883648868
2022-11-18T19:27:16.649Z,86.69390031460767
2022-11-18T19:31:18.168Z,86.27138549753496
2022-11-18T19:34:16.775Z,86.47700546467257
2022-11-18T19:37:16.853Z,86.3322107027819
2022-11-18T19:41:17.072Z,85.64127174477005
2022-11-18T19:44:18.009Z,85.96384846478347
2022-11-18T19:47:16.673Z,86.473816378541
2022-11-18T19:51:16.956Z,85.54015042409952
2022-11-18T19:54:16.433Z,84.77966954541309
2022-11-18T19:57:17.016Z,84.86382060220986
2022-11-18T20:01:19.009Z,84.58558506895818
2022-11-18T20:04:17.022Z,83.89889275109932
2022-11-18T20:07:25.107Z,83.55140589811907
2022-11-18T20:11:18.624Z,84.72370381372862
2022-11-18T20:14:16.436Z,85.74363061643074
2022-11-18T20:17:16.506Z,86.05440096029865
2022-11-18T20:21:21.005Z,85.90627502792682
2022-11-18T20:24:18.218Z,85.9839901444325
2022-11-18T20:27:18.049Z,86.0926184189073
2022-11-18T20:31:19.492Z,86.65015538271376
2022-11-18T20:34:16.922Z,86.88107907528787
2022-11-18T20:37:18.371Z,86.96387569707409
2022-11-18T20:41:16.896Z,87.58180631447766
2022-11-18T20:44:16.829Z,87.38396847963097
2022-11-18T20:47:23.549Z,86.85107422777396
2022-11-18T20:51:17.446Z,86.710924970265
2022-11-18T20:54:22.305Z,86.8178587952895
2022-11-18T20:57:16.278Z,86.31793783942229
2022-11-18T21:01:22.545Z,86.02261159818259
2022-11-18T21:04:16.683Z,85.96612295363003
2022-11-18T21:07:18.087Z,86.50425881037326
2022-11-18T21:11:17.375Z,87.41917145386854
2022-11-18T21:14:23.489Z,87.32373663377851
2022-11-18T21:17:17.359Z,87.25042407803244
2022-11-18T21:21:49.460Z,87.20754815992849
2022-11-18T21:24:19.519Z,87.21315792867885
2022-11-18T21:27:16.959Z,87.16341537994438
2022-11-18T21:31:21.958Z,86.50020463084188
2022-11-18T21:34:19.222Z,86.3406190145939
2022-11-18T21:37:16.942Z,86.92574444939707
2022-11-18T21:41:17.826Z,87.24588059081559
2022-11-18T21:44:17.149Z,87.70225026883115
2022-11-18T21:47:17.246Z,87.36827137296609
2022-11-18T21:51:18.270Z,87.67961278964577
2022-11-18T21:54:18.488Z,87.97355164260253
2022-11-18T21:57:16.661Z,88.51526756904758
2022-11-18T22:01:27.467Z,89.17775548353903
2022-11-18T22:04:52.605Z,89.7420087338005
2022-11-18T22:07:17.014Z,89.62991242664467
2022-11-18T22:11:16.961Z,90.18638764537098
2022-11-18T22:14:16.937Z,89.6768664460702
2022-11-18T22:17:16.992Z,90.24098171425202
2022-11-18T22:21:18.299Z,90.73834202426733
2022-11-18T22:24:16.821Z,91.24663095795314
2022-11-18T22:27:16.917Z,90.4664901618454
2022-11-18T22:31:22.704Z,90.5039117840227
2022-11-18T22:34:17.278Z,91.02942992419945
2022-11-18T22:37:17.416Z,91.06750061159705
2022-11-18T22:42:48.707Z,92.21518956183199
2022-11-18T22:44:16.653Z,92.14062332575122
2022-11-18T22:47:17.758Z,92.30543462318806
2022-11-18T22:51:17.262Z,92.12927782652437
2022-11-18T22:54:39.357Z,91.91879897182825
2022-11-18T22:57:16.956Z,92.02580822489247
2022-11-18T23:01:19.195Z,92.38508872588014
2022-11-18T23:04:16.798Z,92.48082677197091
2022-11-18T23:07:17.772Z,92.41320578881829
2022-11-18T23:13:55.749Z,92.53111516187407
2022-11-18T23:14:16.310Z,92.69307548159088
2022-11-18T23:17:16.487Z,92.61762376225953
2022-11-18T23:21:17.731Z,91.96675168713932
2022-11-18T23:24:18.240Z,92.36864636701844
2022-11-18T23:27:16.872Z,92.71500336040764
2022-11-18T23:31:18.769Z,91.80780271643047
2022-11-18T23:34:17.285Z,91.65562755715045
2022-11-18T23:37:17.560Z,92.12352484304546
2022-11-18T23:41:43.329Z,92.53059669103409
2022-11-18T23:44:45.606Z,93.73918038082704
2022-11-18T23:47:19.310Z,92.87368560346462
2022-11-18T23:51:18.691Z,94.27215692487825
2022-11-18T23:54:17.967Z,93.9852732528452
2022-11-18T23:57:17.209Z,93.47309763438857
